createdAt,value
2022-12-06T00:00:18.066Z,87.63
2022-12-06T00:03:40.878Z,87.56
2022-12-06T00:07:04.202Z,87.50
2022-12-06T00:10:25.886Z,87.34
2022-12-06T00:13:48.299Z,87.17
2022-12-06T00:17:09.888Z,86.93
2022-12-06T00:20:31.779Z,87.15
2022-12-06T00:23:57.247Z,87.20
2022-12-06T00:27:18.930Z,87.01
2022-12-06T00:30:40.898Z,86.69
2022-12-06T00:34:03.003Z,86.60
2022-12-06T00:37:24.905Z,86.32
2022-12-06T00:40:48.136Z,86.22
2022-12-06T00:44:10.425Z,86.21
2022-12-06T00:47:32.033Z,86.16
2022-12-06T00:50:53.650Z,86.38
2022-12-06T00:54:16.121Z,86.13
2022-12-06T00:57:38.835Z,86.19
2022-12-06T01:01:09.540Z,85.78
2022-12-06T01:04:31.403Z,86.01
2022-12-06T01:07:53.290Z,86.00
2022-12-06T01:11:16.579Z,86.01
2022-12-06T01:14:42.254Z,86.37
2022-12-06T01:18:04.000Z,86.17
2022-12-06T01:21:27.266Z,86.59
2022-12-06T01:24:49.243Z,86.55
2022-12-06T01:28:10.799Z,86.65
2022-12-06T01:31:38.822Z,86.53
2022-12-06T01:35:00.978Z,86.54
2022-12-06T01:38:23.234Z,86.32
2022-12-06T01:41:45.254Z,86.43
2022-12-06T01:45:08.296Z,86.08
2022-12-06T01:48:31.290Z,85.71
2022-12-06T01:51:57.810Z,86.27
2022-12-06T01:55:20.901Z,85.99
2022-12-06T01:58:46.042Z,85.91
2022-12-06T02:02:09.152Z,85.97
2022-12-06T02:05:37.466Z,85.58
2022-12-06T02:09:05.414Z,85.25
2022-12-06T02:12:27.201Z,84.94
2022-12-06T02:15:57.516Z,85.46
2022-12-06T02:19:51.181Z,85.56
2022-12-06T02:23:54.524Z,85.30
2022-12-06T02:27:33.247Z,85.19
2022-12-06T02:31:00.702Z,85.64
2022-12-06T02:34:30.847Z,85.14
2022-12-06T02:37:57.927Z,85.51
2022-12-06T02:41:25.143Z,85.72
2022-12-06T02:44:50.897Z,86.24
2022-12-06T02:48:16.090Z,86.05
2022-12-06T02:51:39.414Z,86.19
2022-12-06T02:55:02.913Z,86.18
2022-12-06T02:58:24.986Z,86.01
2022-12-06T03:01:50.411Z,85.71
2022-12-06T03:05:23.053Z,85.63
2022-12-06T03:08:55.473Z,85.87
2022-12-06T03:12:25.639Z,86.01
2022-12-06T03:15:54.210Z,86.09
2022-12-06T03:19:19.886Z,86.35
2022-12-06T03:22:47.710Z,86.42
2022-12-06T03:26:12.922Z,86.21
2022-12-06T03:29:38.568Z,86.33
2022-12-06T03:33:01.102Z,86.34
2022-12-06T03:36:24.210Z,86.65
2022-12-06T03:39:51.187Z,87.00
2022-12-06T03:43:12.857Z,86.20
2022-12-06T03:46:38.211Z,86.55
2022-12-06T03:50:04.012Z,85.84
2022-12-06T03:53:26.052Z,85.78
2022-12-06T03:56:49.082Z,86.38
2022-12-06T04:00:11.735Z,86.12
2022-12-06T04:03:33.612Z,86.39
2022-12-06T04:06:55.350Z,86.34
2022-12-06T04:10:16.665Z,86.42
2022-12-06T04:13:40.835Z,86.85
2022-12-06T04:17:19.882Z,87.03
2022-12-06T04:21:01.051Z,87.27
2022-12-06T04:24:22.763Z,87.42
2022-12-06T04:28:01.903Z,87.76
2022-12-06T04:31:42.680Z,87.66
2022-12-06T04:35:22.027Z,87.48
2022-12-06T04:38:43.837Z,87.19
2022-12-06T04:42:23.549Z,86.99
2022-12-06T04:45:45.158Z,87.16
2022-12-06T04:49:08.398Z,86.96
2022-12-06T04:52:35.194Z,87.37
2022-12-06T04:55:57.119Z,87.06
2022-12-06T04:59:18.834Z,87.01
2022-12-06T05:02:42.524Z,86.78
2022-12-06T05:06:05.782Z,86.46
2022-12-06T05:09:27.379Z,86.51
2022-12-06T05:12:49.263Z,86.81
2022-12-06T05:16:13.248Z,86.48
2022-12-06T05:19:34.967Z,85.96
2022-12-06T05:22:58.323Z,86.11
2022-12-06T05:26:21.500Z,85.33
2022-12-06T05:29:43.410Z,85.06
2022-12-06T05:33:05.111Z,85.08
2022-12-06T05:36:28.419Z,84.31
2022-12-06T05:39:51.678Z,84.69
2022-12-06T05:43:13.554Z,84.17
2022-12-06T05:46:35.363Z,84.55
2022-12-06T05:49:56.834Z,84.28
2022-12-06T05:53:19.137Z,84.65
2022-12-06T05:56:42.059Z,84.17
2022-12-06T06:00:04.925Z,84.47
2022-12-06T06:03:28.394Z,84.11
2022-12-06T06:06:51.283Z,84.45
2022-12-06T06:10:13.486Z,84.30
2022-12-06T06:13:36.904Z,83.83
2022-12-06T06:16:58.479Z,83.58
2022-12-06T06:20:20.159Z,83.63
2022-12-06T06:23:41.922Z,82.98
2022-12-06T06:27:03.952Z,83.40
2022-12-06T06:30:29.426Z,82.80
2022-12-06T06:33:51.042Z,83.14
2022-12-06T06:37:13.046Z,82.57
2022-12-06T06:40:34.904Z,82.41
2022-12-06T06:43:56.923Z,83.16
2022-12-06T06:47:20.142Z,83.10
2022-12-06T06:50:42.054Z,83.35
2022-12-06T06:54:04.883Z,83.24
2022-12-06T06:57:26.826Z,83.10
2022-12-06T07:00:54.041Z,83.30
2022-12-06T07:04:17.139Z,83.56
2022-12-06T07:07:38.802Z,82.94
2022-12-06T07:11:01.279Z,83.25
2022-12-06T07:14:22.918Z,83.22
2022-12-06T07:17:45.099Z,83.29
2022-12-06T07:21:11.015Z,83.28
2022-12-06T07:24:36.931Z,83.37
2022-12-06T07:28:01.521Z,83.24
2022-12-06T07:31:25.759Z,82.65
2022-12-06T07:34:47.506Z,83.17
2022-12-06T07:38:10.850Z,82.91
2022-12-06T07:41:49.996Z,82.87
2022-12-06T07:45:38.073Z,83.70
2022-12-06T07:48:59.942Z,83.08
2022-12-06T07:52:22.178Z,83.11
2022-12-06T07:55:45.458Z,83.25
2022-12-06T07:59:07.637Z,82.71
2022-12-06T08:02:29.883Z,82.53
2022-12-06T08:05:55.234Z,82.46
2022-12-06T08:09:17.355Z,82.50
2022-12-06T08:12:40.325Z,82.00
2022-12-06T08:16:06.328Z,81.75
2022-12-06T08:19:28.719Z,81.17
2022-12-06T08:22:50.670Z,81.70
2022-12-06T08:26:15.393Z,81.83
2022-12-06T08:29:38.746Z,81.85
2022-12-06T08:33:00.751Z,81.84
2022-12-06T08:36:24.568Z,81.62
2022-12-06T08:39:46.522Z,82.57
2022-12-06T08:43:08.178Z,81.84
2022-12-06T08:46:34.933Z,82.27
2022-12-06T08:49:58.650Z,82.12
2022-12-06T08:53:20.714Z,82.65
2022-12-06T08:56:42.774Z,82.40
2022-12-06T09:00:05.834Z,82.00
2022-12-06T09:03:28.896Z,82.93
2022-12-06T09:06:50.840Z,81.95
2022-12-06T09:10:13.071Z,81.66
2022-12-06T09:13:35.235Z,82.64
2022-12-06T09:16:57.002Z,82.53
2022-12-06T09:20:20.400Z,81.97
2022-12-06T09:23:42.564Z,81.92
2022-12-06T09:27:05.443Z,81.94
2022-12-06T09:30:27.657Z,82.03
2022-12-06T09:33:49.339Z,82.39
2022-12-06T09:37:14.288Z,82.14
2022-12-06T09:40:42.995Z,82.75
2022-12-06T09:44:21.321Z,81.98
2022-12-06T09:48:00.441Z,82.96
2022-12-06T09:51:33.384Z,83.00
2022-12-06T09:55:16.763Z,82.63
2022-12-06T09:58:53.627Z,82.40
2022-12-06T10:02:33.028Z,83.03
2022-12-06T10:06:01.666Z,82.81
2022-12-06T10:09:36.143Z,82.36
2022-12-06T10:13:08.474Z,82.14
2022-12-06T10:16:47.528Z,82.83
2022-12-06T10:20:14.834Z,82.63
2022-12-06T10:23:52.872Z,82.43
2022-12-06T10:27:23.960Z,82.85
2022-12-06T10:30:52.903Z,82.72
2022-12-06T10:34:22.162Z,82.30
2022-12-06T10:37:55.564Z,81.96
2022-12-06T10:41:22.305Z,82.58
2022-12-06T10:44:48.252Z,82.30
2022-12-06T10:48:21.139Z,82.12
2022-12-06T10:51:48.006Z,82.73
2022-12-06T10:55:26.162Z,83.74
2022-12-06T10:58:54.794Z,82.72
2022-12-06T11:02:27.758Z,83.32
2022-12-06T11:05:56.042Z,83.29
2022-12-06T11:09:22.088Z,82.82
2022-12-06T11:12:44.703Z,83.06
2022-12-06T11:16:12.324Z,83.20
2022-12-06T11:19:37.558Z,83.28
2022-12-06T11:23:11.559Z,83.25
2022-12-06T11:26:41.414Z,83.66
2022-12-06T11:30:03.778Z,83.25
2022-12-06T11:33:31.952Z,82.70
2022-12-06T11:37:00.093Z,82.84
2022-12-06T11:40:27.369Z,82.51
2022-12-06T11:43:50.230Z,82.88
2022-12-06T11:47:17.516Z,82.42
2022-12-06T11:50:39.280Z,82.95
2022-12-06T11:54:05.356Z,82.12
2022-12-06T11:57:33.313Z,82.63
2022-12-06T12:01:02.494Z,83.18
2022-12-06T12:04:35.864Z,82.75
2022-12-06T12:08:00.753Z,82.84
2022-12-06T12:11:24.687Z,83.03
2022-12-06T12:14:55.113Z,83.26
2022-12-06T12:18:24.175Z,83.33
2022-12-06T12:21:50.999Z,83.43
2022-12-06T12:25:27.513Z,83.74
2022-12-06T12:29:05.677Z,84.04
2022-12-06T12:32:28.716Z,83.53
2022-12-06T12:35:53.995Z,83.91
2022-12-06T12:39:24.823Z,83.03
2022-12-06T12:42:47.553Z,83.38
2022-12-06T12:46:22.315Z,83.53
2022-12-06T12:50:01.675Z,82.84
2022-12-06T12:53:31.339Z,83.41
2022-12-06T12:56:53.546Z,83.04
2022-12-06T13:00:17.089Z,83.44
2022-12-06T13:03:54.370Z,83.18
2022-12-06T13:07:24.290Z,83.76
2022-12-06T13:10:51.756Z,83.93
2022-12-06T13:14:23.238Z,83.88
2022-12-06T13:17:49.143Z,83.75
2022-12-06T13:21:20.635Z,83.92
2022-12-06T13:24:46.493Z,83.79
2022-12-06T13:28:17.108Z,84.03
2022-12-06T13:31:42.210Z,83.35
2022-12-06T13:35:08.137Z,83.28
2022-12-06T13:38:32.747Z,83.42
2022-12-06T13:42:16.622Z,82.98
2022-12-06T13:45:42.654Z,83.59
2022-12-06T13:49:24.242Z,83.54
2022-12-06T13:53:02.247Z,83.77
2022-12-06T13:56:29.838Z,83.75
2022-12-06T13:59:53.285Z,83.06
2022-12-06T14:03:42.398Z,83.47
2022-12-06T14:10:27.942Z,84.19
2022-12-06T14:14:00.046Z,83.71
2022-12-06T14:17:59.485Z,84.58
2022-12-06T14:21:06.966Z,83.72
2022-12-06T14:28:03.647Z,84.04
2022-12-06T14:31:28.268Z,84.02
2022-12-06T14:34:51.484Z,84.86
2022-12-06T14:38:23.402Z,84.75
2022-12-06T14:42:11.025Z,84.95
2022-12-06T14:45:36.417Z,84.73
2022-12-06T14:49:15.175Z,84.83
2022-12-06T14:52:55.850Z,85.34
2022-12-06T14:56:28.697Z,84.89
2022-12-06T15:00:18.501Z,85.40
2022-12-06T15:03:41.775Z,85.59
2022-12-06T15:07:03.791Z,85.65
2022-12-06T15:10:30.040Z,85.64
2022-12-06T15:14:12.562Z,86.25
2022-12-06T15:17:34.067Z,86.71
2022-12-06T15:20:56.359Z,86.47
2022-12-06T15:24:20.226Z,86.39
2022-12-06T15:27:43.174Z,87.17
2022-12-06T15:31:06.586Z,87.17
2022-12-06T15:34:30.365Z,86.41
2022-12-06T15:37:51.581Z,86.28
2022-12-06T15:41:17.566Z,86.15
2022-12-06T15:44:45.679Z,86.67
2022-12-06T15:48:10.620Z,86.76
2022-12-06T15:51:32.579Z,86.62
2022-12-06T15:54:54.587Z,87.09
2022-12-06T15:58:16.315Z,87.63
2022-12-06T16:01:45.179Z,87.25
2022-12-06T16:05:07.722Z,87.12
2022-12-06T16:08:29.523Z,87.09
2022-12-06T16:11:51.554Z,87.90
2022-12-06T16:15:14.104Z,87.17
2022-12-06T16:18:37.562Z,87.04
2022-12-06T16:21:59.226Z,86.62
2022-12-06T16:25:21.325Z,86.81
2022-12-06T16:28:43.303Z,86.92
2022-12-06T16:32:05.272Z,87.22
2022-12-06T16:35:29.006Z,87.09
2022-12-06T16:38:54.778Z,87.04
2022-12-06T16:42:16.399Z,87.29
2022-12-06T16:45:40.226Z,87.27
2022-12-06T16:49:36.915Z,87.27
2022-12-06T16:52:47.709Z,87.20
2022-12-06T16:56:10.647Z,86.88
2022-12-06T16:59:32.561Z,86.67
2022-12-06T17:02:54.655Z,86.94
2022-12-06T17:06:16.674Z,86.92
2022-12-06T17:09:39.652Z,87.17
2022-12-06T17:13:02.096Z,87.57
2022-12-06T17:16:23.693Z,87.96
2022-12-06T17:19:45.857Z,87.57
2022-12-06T17:23:07.482Z,87.59
2022-12-06T17:26:32.970Z,87.48
2022-12-06T17:29:54.543Z,86.95
2022-12-06T17:33:16.629Z,86.88
2022-12-06T17:36:38.429Z,86.94
2022-12-06T17:39:59.940Z,86.87
2022-12-06T17:43:23.384Z,86.60
2022-12-06T17:46:45.111Z,86.78
2022-12-06T17:50:08.374Z,86.70
2022-12-06T17:53:29.988Z,86.88
2022-12-06T17:56:52.905Z,86.64
2022-12-06T18:00:17.295Z,86.42
2022-12-06T18:03:39.346Z,86.95
2022-12-06T18:07:01.316Z,86.22
2022-12-06T18:10:23.632Z,85.96
2022-12-06T18:13:46.058Z,86.35
2022-12-06T18:17:09.134Z,86.76
2022-12-06T18:20:31.159Z,86.63
2022-12-06T18:24:20.199Z,86.82
2022-12-06T18:27:35.079Z,86.89
2022-12-06T18:30:57.021Z,86.82
2022-12-06T18:34:20.910Z,87.28
2022-12-06T18:37:42.534Z,87.47
2022-12-06T18:41:05.382Z,87.24
2022-12-06T18:44:27.176Z,86.84
2022-12-06T18:47:49.473Z,87.36
2022-12-06T18:51:15.574Z,87.36
2022-12-06T18:54:37.615Z,87.52
2022-12-06T18:57:59.242Z,87.59
2022-12-06T19:01:23.649Z,87.30
2022-12-06T19:04:45.283Z,87.50
2022-12-06T19:08:09.375Z,87.77
2022-12-06T19:11:31.205Z,87.57
2022-12-06T19:14:52.905Z,88.61
2022-12-06T19:18:14.682Z,88.15
2022-12-06T19:21:37.218Z,88.27
2022-12-06T19:25:00.998Z,88.32
2022-12-06T19:28:22.960Z,88.31
2022-12-06T19:31:45.392Z,87.51
2022-12-06T19:35:08.625Z,87.71
2022-12-06T19:38:30.977Z,87.56
2022-12-06T19:42:11.681Z,87.77
2022-12-06T19:45:33.303Z,87.33
2022-12-06T19:48:57.676Z,86.95
2022-12-06T19:52:19.634Z,87.41
2022-12-06T19:55:46.610Z,87.25
2022-12-06T19:59:12.297Z,87.43
2022-12-06T20:02:34.447Z,87.28
2022-12-06T20:06:03.569Z,86.98
2022-12-06T20:09:27.985Z,87.24
2022-12-06T20:12:49.706Z,87.35
2022-12-06T20:16:12.978Z,87.13
2022-12-06T20:19:34.986Z,87.03
2022-12-06T20:22:56.662Z,86.89
2022-12-06T20:26:19.120Z,86.56
2022-12-06T20:29:41.309Z,87.01
2022-12-06T20:33:04.611Z,86.32
2022-12-06T20:36:27.376Z,86.49
2022-12-06T20:39:49.340Z,86.33
2022-12-06T20:43:11.397Z,86.27
2022-12-06T20:46:34.293Z,87.11
2022-12-06T20:49:58.785Z,86.93
2022-12-06T20:53:21.023Z,87.21
2022-12-06T20:56:43.701Z,87.15
2022-12-06T21:00:07.991Z,87.24
2022-12-06T21:03:31.970Z,86.86
2022-12-06T21:06:55.575Z,86.68
2022-12-06T21:10:17.559Z,86.63
2022-12-06T21:13:39.738Z,86.43
2022-12-06T21:17:01.631Z,86.47
2022-12-06T21:20:23.651Z,86.67
2022-12-06T21:23:46.628Z,86.23
2022-12-06T21:27:08.573Z,86.04
2022-12-06T21:30:30.641Z,85.37
2022-12-06T21:33:52.758Z,85.92
2022-12-06T21:37:14.749Z,85.78
2022-12-06T21:40:38.200Z,86.13
2022-12-06T21:44:01.090Z,86.00
2022-12-06T21:47:22.867Z,85.84
2022-12-06T21:50:45.433Z,85.88
2022-12-06T21:54:07.915Z,85.87
2022-12-06T21:57:34.318Z,86.38
2022-12-06T22:00:56.983Z,86.23
2022-12-06T22:04:19.357Z,86.41
2022-12-06T22:07:41.303Z,86.47
2022-12-06T22:11:07.583Z,86.32
2022-12-06T22:14:31.090Z,85.96
2022-12-06T22:17:53.019Z,85.56
2022-12-06T22:21:17.122Z,85.07
2022-12-06T22:24:38.926Z,85.44
2022-12-06T22:28:00.788Z,85.62
2022-12-06T22:31:26.377Z,85.87
2022-12-06T22:34:48.457Z,85.70
2022-12-06T22:38:10.141Z,85.48
2022-12-06T22:41:31.783Z,85.98
2022-12-06T22:44:53.370Z,85.47
2022-12-06T22:48:16.719Z,85.20
2022-12-06T22:51:40.447Z,85.55
2022-12-06T22:55:01.992Z,85.65
2022-12-06T22:58:23.765Z,85.92
2022-12-06T23:01:45.754Z,86.05
2022-12-06T23:05:09.425Z,85.49
2022-12-06T23:08:30.903Z,84.69
2022-12-06T23:11:52.700Z,84.73
2022-12-06T23:15:14.611Z,84.85
2022-12-06T23:18:36.602Z,85.02
2022-12-06T23:21:59.442Z,84.52
2022-12-06T23:25:21.093Z,85.01
2022-12-06T23:28:43.626Z,85.00
2022-12-06T23:32:07.114Z,84.65
2022-12-06T23:35:28.896Z,84.93
2022-12-06T23:38:53.987Z,84.63
2022-12-06T23:42:15.679Z,84.61
2022-12-06T23:45:37.579Z,84.26
2022-12-06T23:49:00.066Z,83.99
2022-12-06T23:52:21.660Z,84.13
2022-12-06T23:55:44.899Z,83.99
2022-12-06T23:59:08.625Z,84.09
